createdAt,value
2018-04-27T00:01:59.263Z,99.90
2018-04-27T00:04:28.504Z,99.90
2018-04-27T00:06:58.507Z,99.90
2018-04-27T00:09:27.494Z,99.90
2018-04-27T00:11:56.704Z,99.90
2018-04-27T00:14:26.085Z,99.90
2018-04-27T00:16:55.176Z,99.90
2018-04-27T00:19:24.417Z,99.90
2018-04-27T00:21:54.307Z,99.90
2018-04-27T00:24:23.607Z,99.90
2018-04-27T00:26:52.588Z,99.90
2018-04-27T00:29:21.743Z,99.90
2018-04-27T00:31:51.679Z,99.90
2018-04-27T00:34:21.105Z,99.90
2018-04-27T00:36:50.215Z,99.90
2018-04-27T00:39:19.396Z,99.90
2018-04-27T00:41:48.443Z,99.90
2018-04-27T00:44:17.702Z,99.90
2018-04-27T00:46:46.699Z,99.90
2018-04-27T00:49:15.823Z,99.90
2018-04-27T00:51:44.815Z,99.90
2018-04-27T00:54:13.899Z,99.90
2018-04-27T00:56:42.907Z,99.90
2018-04-27T00:59:12.014Z,99.90
2018-04-27T01:01:41.788Z,99.90
2018-04-27T01:04:11.087Z,99.90
2018-04-27T01:06:40.198Z,99.90
2018-04-27T01:09:09.368Z,99.90
2018-04-27T01:11:38.468Z,99.90
2018-04-27T01:14:07.711Z,99.90
2018-04-27T01:16:36.763Z,99.90
2018-04-27T01:19:06.208Z,99.90
2018-04-27T01:21:35.418Z,99.90
2018-04-27T01:24:05.547Z,99.90
2018-04-27T01:26:34.881Z,99.90
2018-04-27T01:29:04.232Z,99.90
2018-04-27T01:31:34.262Z,99.90
2018-04-27T01:34:03.752Z,99.90
2018-04-27T01:36:32.842Z,99.90
2018-04-27T01:39:02.029Z,99.90
2018-04-27T01:41:31.231Z,99.90
2018-04-27T01:44:00.341Z,99.90
2018-04-27T01:46:29.424Z,99.90
2018-04-27T01:48:58.579Z,99.90
2018-04-27T01:51:28.571Z,99.90
2018-04-27T01:53:57.771Z,99.90
2018-04-27T01:56:26.967Z,99.90
2018-04-27T01:58:56.144Z,99.90
2018-04-27T02:01:25.336Z,99.90
2018-04-27T02:03:54.490Z,99.90
2018-04-27T02:06:23.653Z,99.90
2018-04-27T02:08:53.171Z,99.90
2018-04-27T02:11:22.889Z,99.90
2018-04-27T02:13:52.106Z,99.90
2018-04-27T02:16:21.995Z,99.90
2018-04-27T02:18:51.472Z,99.90
2018-04-27T02:21:20.479Z,99.90
2018-04-27T02:23:49.732Z,99.90
2018-04-27T02:26:18.696Z,99.90
2018-04-27T02:28:48.694Z,99.90
2018-04-27T02:31:17.781Z,99.90
2018-04-27T02:33:47.092Z,99.90
2018-04-27T02:36:16.117Z,99.90
2018-04-27T02:38:46.213Z,99.90
2018-04-27T02:41:15.303Z,99.90
2018-04-27T02:43:44.603Z,99.90
2018-04-27T02:46:13.699Z,99.90
2018-04-27T02:48:42.696Z,99.90
2018-04-27T02:51:11.781Z,99.90
2018-04-27T02:53:41.100Z,99.90
2018-04-27T02:56:10.092Z,99.90
2018-04-27T02:58:39.197Z,99.90
2018-04-27T03:01:08.988Z,99.90
2018-04-27T03:03:38.303Z,99.90
2018-04-27T03:06:07.392Z,99.90
2018-04-27T03:08:36.596Z,99.90
2018-04-27T03:11:06.520Z,99.90
2018-04-27T03:13:35.805Z,99.90
2018-04-27T03:16:04.911Z,99.90
2018-04-27T03:18:34.283Z,99.90
2018-04-27T03:21:03.331Z,99.90
2018-04-27T03:23:32.380Z,99.90
2018-04-27T03:26:01.332Z,99.90
2018-04-27T03:28:30.571Z,99.90
2018-04-27T03:30:59.605Z,99.90
2018-04-27T03:33:28.763Z,99.90
2018-04-27T03:35:57.784Z,99.90
2018-04-27T03:38:26.890Z,99.90
2018-04-27T03:40:55.972Z,99.90
2018-04-27T03:43:25.131Z,99.90
2018-04-27T03:45:54.108Z,99.90
2018-04-27T03:48:24.184Z,99.90
2018-04-27T03:50:53.298Z,99.90
2018-04-27T03:53:23.859Z,99.90
2018-04-27T03:55:53.118Z,99.90
2018-04-27T03:58:22.288Z,99.90
2018-04-27T04:01:13.397Z,99.90
2018-04-27T04:03:54.652Z,99.90
2018-04-27T04:06:24.420Z,99.90
2018-04-27T04:08:53.729Z,99.90
2018-04-27T04:11:22.799Z,99.90
2018-04-27T04:13:51.956Z,99.90
2018-04-27T04:16:22.892Z,99.90
2018-04-27T04:18:52.376Z,99.90
2018-04-27T04:21:21.603Z,99.90
2018-04-27T04:23:50.819Z,99.90
2018-04-27T04:26:19.796Z,99.90
2018-04-27T04:28:49.792Z,99.90
2018-04-27T04:31:18.988Z,99.90
2018-04-27T04:33:48.271Z,99.40
2018-04-27T04:36:18.179Z,97.70
2018-04-27T04:38:47.463Z,97.10
2018-04-27T04:41:16.709Z,95.60
2018-04-27T04:43:46.012Z,93.70
2018-04-27T04:46:16.042Z,93.60
2018-04-27T04:48:46.096Z,93.60
2018-04-27T04:51:17.339Z,93.50
2018-04-27T04:53:46.647Z,93.10
2018-04-27T04:56:15.940Z,91.80
2018-04-27T04:58:45.095Z,91.40
2018-04-27T05:01:15.083Z,89.80
2018-04-27T05:03:44.302Z,87.70
2018-04-27T05:06:13.453Z,85.50
2018-04-27T05:08:42.592Z,88.90
2018-04-27T05:11:11.707Z,87.60
2018-04-27T05:13:40.900Z,87.70
2018-04-27T05:16:10.005Z,87.40
2018-04-27T05:18:43.239Z,89.60
2018-04-27T05:21:12.380Z,89.40
2018-04-27T05:23:41.639Z,90.00
2018-04-27T05:26:10.691Z,85.70
2018-04-27T05:28:40.047Z,84.50
2018-04-27T05:31:21.411Z,82.90
2018-04-27T05:33:51.898Z,82.80
2018-04-27T05:36:21.102Z,81.90
2018-04-27T05:38:51.162Z,75.60
2018-04-27T05:41:21.371Z,73.90
2018-04-27T05:43:51.643Z,73.20
2018-04-27T05:46:23.409Z,74.80
2018-04-27T05:48:53.375Z,74.60
2018-04-27T05:51:22.620Z,76.10
2018-04-27T05:53:51.966Z,75.60
2018-04-27T05:56:22.095Z,79.60
2018-04-27T05:58:51.292Z,79.60
2018-04-27T06:01:21.104Z,81.30
2018-04-27T06:04:02.603Z,81.40
2018-04-27T06:06:32.624Z,81.30
2018-04-27T06:09:02.026Z,81.20
2018-04-27T06:11:31.179Z,82.60
2018-04-27T06:14:00.324Z,83.60
2018-04-27T06:16:30.123Z,80.20
2018-04-27T06:19:00.163Z,78.90
2018-04-27T06:21:29.541Z,78.80
2018-04-27T06:23:59.021Z,77.70
2018-04-27T06:26:28.131Z,77.30
2018-04-27T06:28:57.443Z,75.70
2018-04-27T06:31:26.439Z,75.40
2018-04-27T06:33:55.629Z,76.90
2018-04-27T06:36:24.667Z,76.20
2018-04-27T06:38:53.804Z,75.90
2018-04-27T06:41:22.816Z,75.90
2018-04-27T06:43:51.905Z,75.50
2018-04-27T06:46:21.860Z,72.90
2018-04-27T06:48:51.131Z,72.90
2018-04-27T06:51:20.227Z,72.30
2018-04-27T06:53:49.456Z,73.60
2018-04-27T06:56:19.563Z,77.20
2018-04-27T06:58:49.024Z,77.10
2018-04-27T07:01:18.397Z,79.90
2018-04-27T07:03:48.187Z,80.80
2018-04-27T07:06:18.204Z,86.20
2018-04-27T07:08:47.610Z,86.20
2018-04-27T07:11:16.999Z,86.00
2018-04-27T07:13:46.397Z,84.30
2018-04-27T07:16:15.415Z,81.10
2018-04-27T07:18:45.168Z,77.70
2018-04-27T07:21:14.423Z,77.70
2018-04-27T07:23:43.711Z,80.70
2018-04-27T07:26:13.075Z,83.10
2018-04-27T07:28:42.242Z,79.80
2018-04-27T07:31:12.028Z,76.80
2018-04-27T07:33:41.123Z,76.60
2018-04-27T07:36:10.287Z,77.10
2018-04-27T07:38:39.622Z,78.10
2018-04-27T07:41:08.944Z,78.30
2018-04-27T07:43:38.095Z,79.40
2018-04-27T07:46:07.647Z,81.70
2018-04-27T07:48:37.769Z,86.80
2018-04-27T07:51:07.815Z,85.90
2018-04-27T07:53:37.088Z,85.90
2018-04-27T07:56:07.339Z,89.00
2018-04-27T07:58:37.776Z,90.80
2018-04-27T08:01:06.949Z,90.30
2018-04-27T08:03:37.049Z,88.70
2018-04-27T08:06:07.231Z,86.80
2018-04-27T08:08:36.875Z,86.70
2018-04-27T08:11:06.172Z,85.30
2018-04-27T08:13:36.636Z,84.70
2018-04-27T08:16:05.954Z,84.60
2018-04-27T08:18:37.337Z,82.40
2018-04-27T08:21:06.953Z,82.30
2018-04-27T08:23:37.368Z,81.30
2018-04-27T08:26:06.632Z,82.00
2018-04-27T08:28:37.140Z,81.80
2018-04-27T08:31:07.395Z,79.70
2018-04-27T08:33:36.453Z,80.50
2018-04-27T08:36:06.492Z,81.40
2018-04-27T08:38:35.766Z,81.40
2018-04-27T08:41:04.866Z,81.30
2018-04-27T08:43:34.150Z,81.30
2018-04-27T08:46:04.213Z,80.80
2018-04-27T08:48:33.648Z,81.00
2018-04-27T08:51:02.791Z,80.30
2018-04-27T08:53:32.195Z,78.10
2018-04-27T08:56:01.217Z,76.90
2018-04-27T08:58:30.472Z,77.60
2018-04-27T09:01:00.615Z,75.40
2018-04-27T09:03:30.411Z,76.20
2018-04-27T09:05:59.436Z,76.20
2018-04-27T09:08:29.439Z,80.50
2018-04-27T09:10:58.635Z,80.50
2018-04-27T09:13:27.807Z,82.60
2018-04-27T09:15:56.936Z,84.90
2018-04-27T09:18:27.156Z,88.50
2018-04-27T09:20:56.448Z,88.50
2018-04-27T09:23:25.552Z,88.80
2018-04-27T09:25:54.339Z,87.90
2018-04-27T09:28:23.612Z,88.50
2018-04-27T09:30:52.537Z,88.30
2018-04-27T09:33:22.659Z,91.10
2018-04-27T09:35:51.758Z,91.10
2018-04-27T09:38:20.955Z,91.40
2018-04-27T09:40:50.311Z,90.20
2018-04-27T09:43:19.664Z,90.60
2018-04-27T09:45:49.768Z,91.40
2018-04-27T09:48:19.964Z,91.50
2018-04-27T09:50:49.612Z,91.50
2018-04-27T09:53:19.736Z,91.90
2018-04-27T09:55:49.781Z,92.10
2018-04-27T09:58:19.560Z,93.20
2018-04-27T10:00:48.657Z,93.20
2018-04-27T10:03:17.652Z,93.80
2018-04-27T10:05:46.801Z,93.30
2018-04-27T10:08:15.983Z,93.20
2018-04-27T10:10:45.973Z,90.70
2018-04-27T10:13:16.799Z,91.40
2018-04-27T10:15:46.152Z,91.40
2018-04-27T10:18:15.688Z,91.10
2018-04-27T10:20:44.821Z,91.30
2018-04-27T10:23:14.804Z,91.60
2018-04-27T10:25:45.497Z,92.40
2018-04-27T10:28:15.506Z,92.90
2018-04-27T10:30:44.991Z,92.90
2018-04-27T10:33:13.986Z,92.40
2018-04-27T10:35:42.979Z,92.40
2018-04-27T10:38:12.108Z,92.00
2018-04-27T10:40:42.247Z,91.20
2018-04-27T10:43:12.244Z,91.30
2018-04-27T10:45:42.182Z,92.10
2018-04-27T10:48:11.564Z,92.10
2018-04-27T10:50:40.914Z,92.70
2018-04-27T10:53:11.155Z,91.90
2018-04-27T10:55:40.408Z,91.90
2018-04-27T10:58:09.683Z,92.00
2018-04-27T11:00:38.940Z,91.40
2018-04-27T11:03:08.320Z,91.70
2018-04-27T11:05:43.161Z,93.10
2018-04-27T11:08:15.149Z,94.00
